Omaha, NE (68172)

11:24 AM CDT on May 27, 2015 (GMT -0500)
SVdP | | Change Station
CLOSE
Current Station
Personal Weather Station
Location: Omaha, NE
Elevation: 1184 ft
Nearby Weather Stations

Elev 1184 ft 41.29 °N, 96.13 °W | Updated 4 seconds ago

Clear
Clear
76.6 °F
Feels Like 78 °F
N
5.4
Wind Variable Wind from NW
Gusts 5.4 mph

Today
High -- | Low -- °F
--% Chance of Precip.
Yesterday
High -- | Low -- °F
Precip. -- in
5:56 AM 8:47 PM
Waxing Gibbous, 68% visible
Pressure 30.06 in
Visibility 10.0 miles
Clouds Clear
Heat Index 78 °F
Dew Point 56 °F
Humidity 49%
Rainfall 0.00 in
Snow Depth Not available.
UV 9 out of 12
Pollen 7.30 out of 12
Air Quality Not available.
Flu Activity No Activity
METAR KMLE 271615Z AUTO 00000KT 10SM CLR 24/13 A3006 RMK AO2 T02440133

More Conditions Fewer Conditions

Pressure 30.06 in
Visibility 10.0 miles
Clouds Clear
Heat Index 78 °F
Dew Point 56 °F
Humidity 49%
Rainfall 0.00 in
Snow Depth Not available.
UV 9 out of 12
Pollen 7.30 out of 12
Air Quality Not available.
Flu Activity No Activity
METAR KMLE 271615Z AUTO 00000KT 10SM CLR 24/13 A3006 RMK AO2 T02440133

More Conditions Fewer Conditions

10-Day Weather Forecast

Almanac

Astronomy

May. 27, 2015 Rise Set
Actual Time
Civil Twilight
Nautical Twilight
Astronomical Twilight
Moon
Length of Visible Light
Length of Day
Tomorrow will be .
, % of the Moon is Illuminated

Today's Extremes

State Highs State Lows

Community

WunderPhotos

Upload Photos

1,824,711 photos uploaded!

WunderBlogs® & News

Nearby

Air Quality

  Air Quality AQ Index Pollutant
Not available.

Snow Depth

Station Depth Elevation

Earthquake Activity

City Distance Mag. Time & Date
Minimum magnitude displayed is 2.5.

Coastal Water Temperatures

Place Temperature

Stations

Nearby Weather Stations

Station Location Temp. Windchill Dew Point Humidity Wind Precip. Elev Updated Type